Time;durP1;ratioP1;P1;durP2;ratioP2;P2;SDS_P1;SDS_P2;PMS_P1;PMS_P2;Temp;Humidity;BMP_temperature;BMP_pressure;BME280_temperature;BME280_humidity;BME280_pressure;Samples;Min_cycle;Max_cycle;Signal;HPM_P1;HPM_P2
2023/09/14 00:01:22;;;;;;;0.10;0.10;;;;;;;12.21;78.25;100217.00;5006970;28;20088;-69
2023/09/14 00:03:51;;;;;;;0.10;0.10;;;;;;;12.11;78.97;100219.72;4990548;28;20127;-70
2023/09/14 00:06:17;;;;;;;0.10;0.10;;;;;;;12.05;79.48;100224.41;5005624;28;20495;-69
2023/09/14 00:08:43;;;;;;;0.20;0.10;;;;;;;12.04;79.54;100228.22;5003616;28;20049;-70
2023/09/14 00:11:11;;;;;;;0.10;0.10;;;;;;;11.83;79.23;100199.97;5004306;28;20053;-70
2023/09/14 00:13:37;;;;;;;0.10;0.10;;;;;;;11.96;79.57;100226.84;4987978;28;20050;-71
2023/09/14 00:16:05;;;;;;;0.10;0.10;;;;;;;11.94;79.87;100229.03;5002220;28;20105;-71
2023/09/14 00:18:31;;;;;;;0.10;0.10;;;;;;;11.92;80.72;100223.00;5002922;28;20057;-71
2023/09/14 00:20:57;;;;;;;0.10;0.10;;;;;;;11.89;80.86;100232.56;5007747;28;20049;-71
2023/09/14 00:23:23;;;;;;;0.10;0.10;;;;;;;11.88;80.59;100230.94;5006333;28;20050;-71
2023/09/14 00:25:50;;;;;;;0.10;0.10;;;;;;;11.85;80.71;100220.53;5004720;28;20073;-70
2023/09/14 00:28:17;;;;;;;0.10;0.10;;;;;;;11.86;81.03;100218.59;5007645;28;20558;-70
2023/09/14 00:30:43;;;;;;;0.10;0.10;;;;;;;11.84;81.24;100223.53;5004346;28;20108;-71
2023/09/14 00:33:10;;;;;;;0.10;0.10;;;;;;;11.83;81.38;100221.88;5019688;28;20049;-71
2023/09/14 00:35:36;;;;;;;;;;;;;;;11.83;81.35;100224.63;5006443;28;20045;-70
2023/09/14 00:38:03;;;;;;;0.10;0.10;;;;;;;11.78;81.01;100218.06;5003435;28;20308;-72
2023/09/14 00:40:29;;;;;;;0.10;0.10;;;;;;;11.81;80.82;100224.09;4988228;28;21159;-70
2023/09/14 00:42:55;;;;;;;0.10;0.10;;;;;;;11.74;81.38;100216.97;5002792;28;20128;-70
2023/09/14 00:45:22;;;;;;;0.10;0.10;;;;;;;11.76;81.42;100227.63;5006638;28;20054;-70
2023/09/14 00:47:49;;;;;;;0.10;0.10;;;;;;;11.73;81.50;100220.81;5002617;28;20067;-71
2023/09/14 00:50:17;;;;;;;;;;;;;;;11.73;81.49;100220.81;5009293;28;20136;-70
2023/09/14 00:52:46;;;;;;;0.10;0.10;;;;;;;11.69;81.28;100219.69;5004484;28;19980;-69
2023/09/14 00:55:19;;;;;;;0.10;0.10;;;;;;;11.65;81.53;100218.59;5008789;28;20077;-70
2023/09/14 00:57:47;;;;;;;0.10;0.10;;;;;;;11.46;81.77;100199.09;5002578;28;20061;-71
2023/09/14 01:00:14;;;;;;;0.10;0.10;;;;;;;11.49;81.86;100199.38;5005360;28;20050;-71
2023/09/14 01:02:40;;;;;;;0.10;0.10;;;;;;;11.61;82.01;100217.50;5006297;28;20058;-71
2023/09/14 01:05:07;;;;;;;0.10;0.10;;;;;;;11.56;82.35;100218.31;5007732;28;20185;-72
2023/09/14 01:07:35;;;;;;;0.10;0.10;;;;;;;11.54;82.56;100219.66;5003927;28;20513;-69
2023/09/14 01:10:02;;;;;;;0.10;0.10;;;;;;;11.49;82.86;100220.50;5007647;28;20156;-70
2023/09/14 01:12:28;;;;;;;0.10;0.10;;;;;;;11.45;83.22;100222.09;5003424;28;20457;-71
2023/09/14 01:15:15;;;;;;;0.10;0.10;;;;;;;11.37;83.29;100223.44;5006140;28;20050;-70
2023/09/14 01:17:56;;;;;;;0.10;0.10;;;;;;;11.34;83.50;100230.31;5004293;28;20082;-71
2023/09/14 01:20:48;;;;;;;0.10;0.10;;;;;;;11.29;83.67;100232.19;5005551;28;20059;-71
2023/09/14 01:23:28;;;;;;;0.10;0.10;;;;;;;11.25;84.06;100231.09;5007416;28;20054;-68
2023/09/14 01:25:58;;;;;;;0.10;0.10;;;;;;;11.21;84.22;100228.06;5007639;28;20108;-67
2023/09/14 01:28:24;;;;;;;0.00;0.00;;;;;;;11.17;84.46;100232.44;5008511;28;20050;-68
2023/09/14 01:30:51;;;;;;;0.10;0.10;;;;;;;11.18;84.68;100234.91;5011754;28;20487;-66
2023/09/14 01:33:20;;;;;;;0.10;0.10;;;;;;;11.17;84.92;100235.19;5009359;28;20539;-67
2023/09/14 01:35:51;;;;;;;0.10;0.10;;;;;;;11.12;85.22;100226.94;5009656;28;20050;-66
2023/09/14 01:38:17;;;;;;;0.00;0.00;;;;;;;11.14;85.29;100230.22;5010497;28;20081;-67
2023/09/14 01:40:44;;;;;;;0.10;0.10;;;;;;;11.10;85.40;100242.81;5009666;28;20194;-68
2023/09/14 01:43:14;;;;;;;0.10;0.10;;;;;;;11.10;85.46;100235.44;5006074;28;20053;-67
2023/09/14 01:45:41;;;;;;;0.10;0.10;;;;;;;11.08;85.71;100234.84;5007504;28;20077;-68
2023/09/14 01:48:07;;;;;;;0.10;0.10;;;;;;;11.08;86.07;100229.38;5008826;28;20050;-66
2023/09/14 01:50:33;;;;;;;0.10;0.10;;;;;;;11.05;86.26;100227.19;5008973;28;20057;-67
2023/09/14 01:52:59;;;;;;;0.10;0.10;;;;;;;11.06;86.39;100234.28;5007513;28;20053;-69
2023/09/14 01:55:25;;;;;;;0.10;0.10;;;;;;;10.99;86.68;100223.59;5023811;28;20136;-67
2023/09/14 01:57:52;;;;;;;0.10;0.10;;;;;;;10.99;86.81;100226.34;5007366;28;20053;-68
2023/09/14 02:00:20;;;;;;;0.10;0.10;;;;;;;10.98;86.71;100229.34;5025835;28;20512;-67
2023/09/14 02:02:46;;;;;;;0.10;0.10;;;;;;;10.95;86.72;100233.44;5008495;28;20073;-67
2023/09/14 02:05:12;;;;;;;0.10;0.10;;;;;;;10.90;87.02;100234.22;5005608;28;20437;-68
2023/09/14 02:07:38;;;;;;;0.00;0.00;;;;;;;10.92;87.04;100231.25;5007990;28;20465;-70
2023/09/14 02:10:05;;;;;;;0.00;0.00;;;;;;;10.90;87.26;100223.28;5005279;28;20513;-68
2023/09/14 02:12:32;;;;;;;0.10;0.10;;;;;;;10.85;87.24;100227.91;5005678;28;20046;-67
2023/09/14 02:14:59;;;;;;;0.10;0.10;;;;;;;10.83;87.49;100219.97;5010258;28;20052;-68
2023/09/14 02:17:27;;;;;;;0.10;0.10;;;;;;;10.83;87.78;100225.47;5008183;28;20073;-68
2023/09/14 02:19:53;;;;;;;0.10;0.10;;;;;;;10.81;87.62;100218.59;5007989;28;20054;-68
2023/09/14 02:22:19;;;;;;;0.10;0.10;;;;;;;10.82;87.81;100226.53;5010322;28;20050;-68
2023/09/14 02:24:47;;;;;;;0.10;0.10;;;;;;;10.80;87.86;100226.00;5009857;28;20096;-68
2023/09/14 02:27:13;;;;;;;0.08;0.08;;;;;;;10.76;87.82;100220.22;5006309;28;20476;-68
2023/09/14 02:29:39;;;;;;;0.10;0.10;;;;;;;10.75;88.05;100229.53;5007535;28;20095;-68
2023/09/14 02:32:07;;;;;;;0.10;0.10;;;;;;;10.75;88.44;100226.78;5010678;28;20074;-68
2023/09/14 02:34:35;;;;;;;0.10;0.10;;;;;;;10.76;88.39;100230.31;5005886;28;20058;-67
2023/09/14 02:37:02;;;;;;;0.10;0.10;;;;;;;10.73;88.53;100233.59;5004620;28;20073;-68
2023/09/14 02:39:28;;;;;;;;;;;;;;;10.68;89.22;100228.91;5007306;28;20575;-66
2023/09/14 02:41:55;;;;;;;0.08;0.08;;;;;;;10.67;89.51;100229.19;5008346;28;19925;-65
2023/09/14 02:44:21;;;;;;;0.00;0.00;;;;;;;10.64;89.36;100236.84;5006870;28;20085;-67
2023/09/14 02:46:47;;;;;;;0.10;0.10;;;;;;;10.64;88.99;100238.75;5004084;28;20046;-67
2023/09/14 02:49:13;;;;;;;0.10;0.10;;;;;;;10.62;89.14;100239.03;5006660;28;20050;-67
2023/09/14 02:51:40;;;;;;;0.10;0.10;;;;;;;10.59;89.30;100233.25;5021154;28;20072;-68
2023/09/14 02:54:06;;;;;;;0.15;0.15;;;;;;;10.61;89.42;100236.53;5004555;28;20054;-70
2023/09/14 02:56:32;;;;;;;0.10;0.10;;;;;;;10.59;89.57;100233.25;5006067;28;20059;-71
2023/09/14 02:58:58;;;;;;;0.10;0.10;;;;;;;10.60;89.46;100235.72;4992569;28;20046;-70
2023/09/14 03:01:28;;;;;;;0.10;0.10;;;;;;;10.55;89.45;100238.44;4988749;28;20056;-71
2023/09/14 03:03:53;;;;;;;;;;;;;;;10.52;89.54;100241.69;5005626;28;20088;-71
2023/09/14 03:06:20;;;;;;;0.10;0.10;;;;;;;10.49;89.17;100242.22;5004212;28;19929;-71
2023/09/14 03:08:48;;;;;;;0.10;0.10;;;;;;;10.48;89.38;100246.06;4988645;28;20054;-72
2023/09/14 03:11:14;;;;;;;;;;;;;;;10.50;89.65;100246.59;5006164;28;20048;-66
2023/09/14 03:13:40;;;;;;;0.10;0.10;;;;;;;10.47;88.96;100247.13;5006503;28;20416;-71
2023/09/14 03:16:06;;;;;;;0.10;0.10;;;;;;;10.44;89.14;100244.91;5005268;28;20433;-72
2023/09/14 03:18:32;;;;;;;0.10;0.10;;;;;;;10.47;89.14;100255.34;5007353;28;20081;-71
2023/09/14 03:20:58;;;;;;;0.10;0.10;;;;;;;10.45;89.19;100243.81;5003974;28;20054;-67
2023/09/14 03:23:25;;;;;;;0.10;0.10;;;;;;;10.49;89.75;100242.22;5001545;28;20137;-68
2023/09/14 03:25:56;;;;;;;0.10;0.10;;;;;;;10.52;90.00;100244.44;5005774;28;20054;-68
2023/09/14 03:28:22;;;;;;;0.47;0.10;;;;;;;10.56;90.26;100244.72;4988360;28;20105;-69
2023/09/14 03:30:49;;;;;;;0.10;0.10;;;;;;;10.58;89.76;100246.09;5005956;28;20552;-67
2023/09/14 03:33:15;;;;;;;0.10;0.10;;;;;;;10.59;89.31;100253.19;5004077;28;20176;-70
2023/09/14 03:35:41;;;;;;;0.10;0.10;;;;;;;10.59;89.16;100239.53;5005313;28;20161;-67
2023/09/14 03:38:07;;;;;;;0.10;0.10;;;;;;;10.62;89.04;100243.66;4987773;28;20053;-68
2023/09/14 03:40:34;;;;;;;0.10;0.10;;;;;;;10.69;88.83;100237.97;5004364;28;20080;-68
2023/09/14 03:43:01;;;;;;;0.10;0.10;;;;;;;10.75;88.72;100240.47;5007743;28;20054;-67
2023/09/14 03:45:27;;;;;;;0.10;0.10;;;;;;;10.78;88.59;100241.84;5019359;28;20413;-68
2023/09/14 03:47:56;;;;;;;0.00;0.00;;;;;;;10.78;88.28;100231.72;5005607;28;20042;-72
2023/09/14 03:50:27;;;;;;;0.10;0.10;;;;;;;10.85;87.91;100245.16;5004342;28;20054;-68
2023/09/14 03:52:54;;;;;;;0.10;0.10;;;;;;;10.91;87.87;100238.59;5001200;28;20046;-68
2023/09/14 03:55:20;;;;;;;0.10;0.10;;;;;;;10.99;87.63;100240.00;5003736;28;20053;-67
2023/09/14 03:57:47;;;;;;;0.10;0.10;;;;;;;11.01;87.11;100237.84;5004536;28;20156;-72
2023/09/14 04:00:18;;;;;;;0.10;0.10;;;;;;;11.02;86.84;100234.03;5003781;28;20421;-72
2023/09/14 04:02:46;;;;;;;0.10;0.10;;;;;;;10.97;86.86;100214.84;4986910;28;20042;-71
2023/09/14 04:05:13;;;;;;;0.10;0.10;;;;;;;11.20;86.66;100249.13;5006695;28;20058;-71
2023/09/14 04:07:39;;;;;;;;;;;;;;;11.24;86.08;100243.94;4988082;28;20056;-73
2023/09/14 04:10:09;;;;;;;0.10;0.10;;;;;;;11.30;85.38;100255.75;5006029;28;20316;-71
2023/09/14 04:12:38;;;;;;;0.10;0.10;;;;;;;11.34;85.27;100252.22;5005802;28;20471;-72
2023/09/14 04:15:05;;;;;;;0.10;0.10;;;;;;;11.44;85.06;100256.06;5004302;28;20050;-71
2023/09/14 04:17:34;;;;;;;0.10;0.10;;;;;;;11.49;84.85;100245.94;5003476;28;20042;-71
2023/09/14 04:20:00;;;;;;;0.10;0.10;;;;;;;11.54;84.29;100247.03;5005302;28;20092;-71
2023/09/14 04:22:26;;;;;;;0.10;0.10;;;;;;;11.58;84.01;100248.16;5007287;28;20061;-69
2023/09/14 04:24:53;;;;;;;0.10;0.10;;;;;;;11.63;83.48;100245.44;5007221;28;20046;-70
2023/09/14 04:27:19;;;;;;;0.17;0.17;;;;;;;11.68;83.60;100250.91;5006111;28;20044;-71
2023/09/14 04:29:45;;;;;;;0.10;0.10;;;;;;;11.73;83.31;100250.94;5006066;28;20049;-71
2023/09/14 04:32:11;;;;;;;0.10;0.10;;;;;;;11.81;82.94;100255.06;4989680;28;20049;-71
2023/09/14 04:34:38;;;;;;;0.10;0.10;;;;;;;11.86;82.50;100249.56;4990006;28;20049;-72
2023/09/14 04:37:04;;;;;;;;;;;;;;;11.92;82.39;100250.41;4987223;28;20065;-71
2023/09/14 04:39:31;;;;;;;0.10;0.10;;;;;;;11.97;81.57;100244.91;4661642;28;10000345;-72
2023/09/14 04:41:57;;;;;;;0.10;0.10;;;;;;;12.02;81.36;100239.47;5000443;28;20049;-72
2023/09/14 04:44:24;;;;;;;0.10;0.10;;;;;;;12.13;81.38;100247.69;4986642;28;20045;-72
2023/09/14 04:46:50;;;;;;;0.10;0.10;;;;;;;12.20;81.08;100251.00;5003173;28;20046;-72
2023/09/14 04:49:16;;;;;;;0.10;0.10;;;;;;;12.28;80.68;100250.41;5002233;28;20050;-72
2023/09/14 04:51:46;;;;;;;0.10;0.10;;;;;;;12.34;80.22;100249.34;5004768;28;20100;-72
2023/09/14 04:54:12;;;;;;;0.17;0.17;;;;;;;12.43;79.96;100241.38;4988306;28;20050;-68
2023/09/14 04:56:39;;;;;;;0.10;0.10;;;;;;;12.51;79.79;100245.47;4997548;28;20048;-67
2023/09/14 04:59:05;;;;;;;0.10;0.10;;;;;;;12.58;79.25;100247.94;5003241;28;20049;-67
2023/09/14 05:01:32;;;;;;;0.10;0.10;;;;;;;12.65;79.07;100242.16;5003086;28;20038;-68
2023/09/14 05:03:59;;;;;;;0.10;0.10;;;;;;;12.73;78.73;100239.66;5002909;28;20168;-69
2023/09/14 05:06:26;;;;;;;0.10;0.10;;;;;;;12.81;78.66;100242.94;5004581;28;20148;-67
2023/09/14 05:08:53;;;;;;;0.10;0.10;;;;;;;12.88;78.33;100244.28;5006468;28;20130;-72
2023/09/14 05:11:20;;;;;;;0.20;0.20;;;;;;;12.94;78.10;100242.34;5003603;28;20229;-71
2023/09/14 05:13:46;;;;;;;0.20;0.20;;;;;;;13.02;77.77;100236.25;4996286;28;20045;-73
2023/09/14 05:16:12;;;;;;;0.10;0.10;;;;;;;13.06;77.80;100236.53;4992159;28;20588;-68
2023/09/14 05:18:38;;;;;;;0.20;0.20;;;;;;;13.17;77.74;100242.78;5002231;28;20439;-68
2023/09/14 05:21:04;;;;;;;0.10;0.10;;;;;;;13.27;77.11;100236.44;5004407;28;20037;-68
2023/09/14 05:23:30;;;;;;;0.10;0.10;;;;;;;13.36;76.40;100231.19;5006199;28;20513;-67
2023/09/14 05:25:58;;;;;;;0.20;0.20;;;;;;;13.42;76.36;100236.34;5008260;28;20053;-71
2023/09/14 05:28:25;;;;;;;0.20;0.20;;;;;;;13.50;76.19;100232.22;4988306;28;20424;-71
2023/09/14 05:30:51;;;;;;;0.13;0.13;;;;;;;13.59;75.92;100229.72;5000576;28;20515;-71
2023/09/14 05:33:18;;;;;;;0.20;0.20;;;;;;;13.76;75.32;100232.06;5004222;28;20137;-71
2023/09/14 05:35:44;;;;;;;0.20;0.20;;;;;;;13.88;74.59;100227.03;4999902;28;20092;-71
2023/09/14 05:38:10;;;;;;;0.30;0.30;;;;;;;14.10;74.16;100233.97;5000622;28;20509;-72
2023/09/14 05:40:37;;;;;;;0.20;0.20;;;;;;;14.37;72.53;100235.41;4995970;28;20145;-68
2023/09/14 05:43:11;;;;;;;0.20;0.20;;;;;;;14.52;72.01;100237.19;4983369;28;20138;-66
2023/09/14 05:45:40;;;;;;;0.20;0.20;;;;;;;14.81;70.64;100236.34;4992334;28;20485;-70
2023/09/14 05:48:06;;;;;;;0.20;0.20;;;;;;;14.85;69.46;100234.66;4989144;28;20433;-71
2023/09/14 05:50:35;;;;;;;0.20;0.20;;;;;;;14.98;68.83;100238.63;4991605;28;20042;-71
2023/09/14 05:53:03;;;;;;;0.20;0.20;;;;;;;15.01;68.68;100240.78;5000193;28;20073;-71
2023/09/14 05:55:33;;;;;;;0.30;0.30;;;;;;;15.15;67.29;100229.06;4997767;28;20054;-67
2023/09/14 05:58:07;;;;;;;0.20;0.20;;;;;;;15.16;67.42;100236.22;4991852;28;20072;-71
2023/09/14 06:00:34;;;;;;;0.30;0.30;;;;;;;15.31;66.94;100226.94;4990840;28;20140;-67
2023/09/14 06:03:00;;;;;;;0.20;0.20;;;;;;;15.55;65.96;100234.31;4993066;28;20069;-66
2023/09/14 06:05:27;;;;;;;0.20;0.20;;;;;;;15.66;65.00;100233.06;4992364;28;20077;-68
2023/09/14 06:07:54;;;;;;;0.20;0.20;;;;;;;15.73;64.31;100230.72;4996744;28;20497;-68
2023/09/14 06:10:22;;;;;;;0.30;0.30;;;;;;;15.90;64.54;100231.34;4999448;28;20065;-67
2023/09/14 06:12:49;;;;;;;0.30;0.30;;;;;;;16.16;63.18;100228.97;5017806;28;20050;-71
2023/09/14 06:15:17;;;;;;;0.30;0.30;;;;;;;16.33;61.97;100216.56;5009541;28;20061;-71
2023/09/14 06:17:43;;;;;;;0.20;0.20;;;;;;;16.36;61.61;100221.47;5010659;28;20190;-70
2023/09/14 06:20:11;;;;;;;0.20;0.20;;;;;;;16.51;60.69;100225.91;4983595;28;20112;-71
2023/09/14 06:22:37;;;;;;;0.20;0.20;;;;;;;16.52;60.12;100227.53;5006075;28;20046;-71
2023/09/14 06:25:04;;;;;;;0.20;0.20;;;;;;;16.63;60.41;100225.38;5009801;28;20049;-69
2023/09/14 06:27:31;;;;;;;0.20;0.20;;;;;;;16.87;59.30;100222.44;5010103;28;20045;-71
2023/09/14 06:29:57;;;;;;;0.30;0.30;;;;;;;16.99;58.31;100217.25;5010155;28;20046;-71
2023/09/14 06:32:24;;;;;;;0.30;0.30;;;;;;;17.14;57.91;100229.09;5010391;28;20069;-71
2023/09/14 06:34:51;;;;;;;0.38;0.32;;;;;;;17.20;56.93;100219.56;5010824;28;20050;-71
2023/09/14 06:37:18;;;;;;;0.30;0.30;;;;;;;17.39;56.34;100224.13;5009698;28;20141;-71
2023/09/14 06:39:44;;;;;;;0.30;0.30;;;;;;;17.49;56.16;100209.28;5009378;28;20076;-71
2023/09/14 06:42:10;;;;;;;0.30;0.30;;;;;;;17.88;55.50;100218.88;4992271;28;20046;-71
2023/09/14 06:44:36;;;;;;;0.30;0.30;;;;;;;18.13;54.36;100220.19;5008727;28;20056;-70
2023/09/14 06:47:02;;;;;;;0.30;0.30;;;;;;;18.37;53.22;100226.53;5004110;28;20042;-69
2023/09/14 06:49:30;;;;;;;0.20;0.20;;;;;;;18.42;52.60;100218.91;5003265;28;20179;-67
2023/09/14 06:51:57;;;;;;;0.30;0.30;;;;;;;18.51;52.33;100220.91;5000134;28;20049;-73
2023/09/14 06:54:25;;;;;;;0.30;0.30;;;;;;;18.67;51.53;100210.22;5019980;28;20057;-71
2023/09/14 06:56:52;;;;;;;0.30;0.30;;;;;;;18.67;50.55;100197.19;5006688;28;20080;-72
2023/09/14 06:59:18;;;;;;;0.30;0.30;;;;;;;18.83;50.21;100211.41;4996657;28;20141;-72
2023/09/14 07:01:45;;;;;;;0.30;0.30;;;;;;;18.91;49.97;100211.78;4996176;28;20052;-72
2023/09/14 07:04:11;;;;;;;0.30;0.30;;;;;;;19.03;49.61;100214.75;4990456;28;20133;-71
2023/09/14 07:06:39;;;;;;;0.30;0.30;;;;;;;19.17;48.72;100213.81;4996640;28;20054;-72
2023/09/14 07:09:06;;;;;;;0.30;0.30;;;;;;;19.20;48.56;100207.63;5020573;28;20066;-69
2023/09/14 07:11:32;;;;;;;0.30;0.30;;;;;;;19.51;48.09;100201.97;4970252;28;20050;-70
2023/09/14 07:14:00;;;;;;;0.30;0.30;;;;;;;19.63;47.46;100206.03;5006096;28;20077;-68
2023/09/14 07:16:26;;;;;;;0.30;0.30;;;;;;;19.63;46.82;100203.28;4988962;28;20069;-69
2023/09/14 07:18:52;;;;;;;0.30;0.30;;;;;;;19.80;47.23;100199.66;5005737;28;20128;-68
2023/09/14 07:21:19;;;;;;;0.30;0.30;;;;;;;20.11;46.23;100207.00;5004410;28;20054;-68
2023/09/14 07:23:47;;;;;;;0.30;0.30;;;;;;;20.27;45.45;100199.75;5005387;28;20077;-67
2023/09/14 07:26:13;;;;;;;0.30;0.30;;;;;;;20.55;44.75;100201.31;5006914;28;20054;-68
2023/09/14 07:28:39;;;;;;;0.30;0.30;;;;;;;20.55;44.54;100202.13;5021145;28;20042;-71
2023/09/14 07:31:06;;;;;;;0.30;0.30;;;;;;;20.53;44.26;100200.84;5004502;28;20562;-72
2023/09/14 07:33:32;;;;;;;0.40;0.40;;;;;;;20.71;44.50;100195.22;5006632;28;20088;-72
2023/09/14 07:35:58;;;;;;;0.30;0.30;;;;;;;21.18;44.12;100197.09;4987930;28;20049;-72
2023/09/14 07:38:25;;;;;;;0.30;0.30;;;;;;;21.39;43.69;100189.59;5018647;28;20046;-72
2023/09/14 07:40:53;;;;;;;;;;;;;;;21.84;43.32;100183.66;4970289;28;20517;-69
2023/09/14 07:43:19;;;;;;;0.40;0.40;;;;;;;21.94;42.53;100186.03;5003048;28;19932;-69
2023/09/14 07:45:45;;;;;;;0.30;0.30;;;;;;;21.96;42.71;100180.94;5005538;28;20584;-71
2023/09/14 07:48:12;;;;;;;0.30;0.30;;;;;;;22.16;42.31;100182.00;4985819;28;20057;-72
2023/09/14 07:50:39;;;;;;;0.30;0.30;;;;;;;22.37;41.88;100183.94;5006277;28;20513;-69
2023/09/14 07:53:06;;;;;;;0.30;0.30;;;;;;;22.40;41.30;100186.00;5005736;28;20153;-69
2023/09/14 07:55:32;;;;;;;0.30;0.30;;;;;;;22.24;40.95;100183.91;5003324;28;20396;-68
2023/09/14 07:58:00;;;;;;;0.30;0.30;;;;;;;22.20;40.53;100188.53;5000472;28;20363;-72
2023/09/14 08:00:26;;;;;;;0.30;0.30;;;;;;;21.91;41.08;100164.44;4999466;28;20049;-72
2023/09/14 08:02:53;;;;;;;0.30;0.30;;;;;;;22.23;41.37;100185.06;5003019;28;20041;-69
2023/09/14 08:05:20;;;;;;;0.30;0.30;;;;;;;22.51;40.18;100170.50;5000736;28;20225;-69
2023/09/14 08:07:46;;;;;;;0.40;0.40;;;;;;;23.00;39.88;100173.63;5004814;28;20060;-68
2023/09/14 08:10:12;;;;;;;0.40;0.40;;;;;;;23.37;39.63;100181.97;5004379;28;20077;-69
2023/09/14 08:12:39;;;;;;;0.40;0.40;;;;;;;23.56;37.99;100170.13;5003384;28;20096;-69
2023/09/14 08:15:08;;;;;;;0.30;0.30;;;;;;;23.45;37.72;100180.97;5017245;28;20097;-68
2023/09/14 08:17:34;;;;;;;0.30;0.30;;;;;;;23.27;38.39;100185.22;5002626;28;20452;-69
2023/09/14 08:20:01;;;;;;;0.40;0.40;;;;;;;22.94;38.98;100181.41;4999946;28;20046;-69
2023/09/14 08:22:28;;;;;;;0.40;0.40;;;;;;;22.65;38.91;100175.72;5003285;28;20425;-72
2023/09/14 08:24:55;;;;;;;0.40;0.40;;;;;;;22.75;38.12;100173.66;5005116;28;20053;-69
2023/09/14 08:27:21;;;;;;;;;;;;;;;23.15;38.33;100178.47;5003549;28;20425;-68
2023/09/14 08:29:47;;;;;;;0.40;0.40;;;;;;;23.22;38.18;100170.34;5001970;28;20440;-68
2023/09/14 08:32:16;;;;;;;0.40;0.40;;;;;;;23.33;38.12;100159.53;5006918;28;20096;-72
2023/09/14 08:34:42;;;;;;;0.30;0.30;;;;;;;23.97;37.72;100152.50;5003778;28;20448;-72
2023/09/14 08:37:09;;;;;;;0.40;0.40;;;;;;;24.47;36.83;100148.22;5002506;28;20065;-72
2023/09/14 08:39:36;;;;;;;0.40;0.40;;;;;;;24.59;36.44;100141.75;4986070;28;20528;-72
2023/09/14 08:42:02;;;;;;;0.40;0.40;;;;;;;24.55;36.52;100154.00;5001884;28;20042;-72
2023/09/14 08:44:33;;;;;;;0.30;0.30;;;;;;;24.72;35.54;100155.59;5001250;28;20058;-69
2023/09/14 08:47:00;;;;;;;0.40;0.40;;;;;;;24.63;35.84;100116.66;4985521;28;20140;-69
2023/09/14 08:49:30;;;;;;;0.40;0.40;;;;;;;24.98;35.36;100145.84;5003385;28;20069;-72
2023/09/14 08:51:59;;;;;;;0.30;0.30;;;;;;;25.13;35.08;100147.78;4999545;28;20042;-72
2023/09/14 08:54:26;;;;;;;0.30;0.30;;;;;;;24.97;35.34;100141.44;4998746;28;20045;-70
2023/09/14 08:56:53;;;;;;;0.40;0.40;;;;;;;25.10;35.31;100142.94;5004602;28;20588;-70
2023/09/14 08:59:23;;;;;;;0.20;0.20;;;;;;;24.94;35.44;100137.38;5005983;28;20137;-72
2023/09/14 09:01:50;;;;;;;0.30;0.30;;;;;;;23.70;36.59;100144.63;4985474;28;20579;-72
2023/09/14 09:04:16;;;;;;;;;;;;;;;22.57;39.02;100145.19;5000424;28;20489;-72
2023/09/14 09:06:44;;;;;;;0.40;0.40;;;;;;;22.88;39.01;100141.00;5004974;28;20491;-72
2023/09/14 09:09:15;;;;;;;0.30;0.30;;;;;;;23.21;37.67;100154.78;5002418;28;20069;-71
2023/09/14 09:11:42;;;;;;;0.40;0.40;;;;;;;23.27;37.43;100143.38;5004465;28;20053;-68
2023/09/14 09:14:08;;;;;;;;;;;;;;;23.62;37.57;100131.63;5004099;28;20513;-69
2023/09/14 09:16:34;;;;;;;0.50;0.50;;;;;;;24.12;36.78;100132.19;5006316;28;19936;-71
2023/09/14 09:19:02;;;;;;;0.50;0.50;;;;;;;24.32;36.70;100130.31;5001809;28;20049;-72
2023/09/14 09:21:29;;;;;;;0.50;0.50;;;;;;;24.53;35.62;100126.41;5006573;28;20061;-72
2023/09/14 09:23:57;;;;;;;0.40;0.40;;;;;;;24.30;35.99;100120.66;5004892;28;20064;-72
2023/09/14 09:26:24;;;;;;;0.50;0.50;;;;;;;24.32;35.70;100126.69;5002394;28;20586;-72
2023/09/14 09:28:51;;;;;;;0.60;0.60;;;;;;;24.74;35.05;100123.31;4986642;28;20054;-73
2023/09/14 09:31:17;;;;;;;0.50;0.50;;;;;;;25.10;34.50;100112.16;5003966;28;20108;-73
2023/09/14 09:33:49;;;;;;;0.40;0.40;;;;;;;25.25;33.90;100120.88;5005811;28;20054;-69
2023/09/14 09:36:16;;;;;;;0.52;0.52;;;;;;;24.91;34.31;100116.56;4993763;28;20089;-69
2023/09/14 09:38:43;;;;;;;0.60;0.60;;;;;;;24.90;34.46;100126.13;4984538;28;20058;-70
2023/09/14 09:41:11;;;;;;;0.60;0.60;;;;;;;24.97;34.37;100122.66;4980030;28;20555;-68
2023/09/14 09:43:37;;;;;;;0.60;0.60;;;;;;;25.45;33.85;100121.69;5005020;28;20077;-68
2023/09/14 09:46:13;;;;;;;0.60;0.60;;;;;;;25.96;32.52;100105.84;5005146;28;20505;-68
2023/09/14 09:48:41;;;;;;;0.60;0.60;;;;;;;26.43;31.76;100095.44;5002116;28;20448;-71
2023/09/14 09:51:07;;;;;;;0.60;0.60;;;;;;;26.57;31.54;100106.88;5008008;28;20545;-69
2023/09/14 09:53:35;;;;;;;0.70;0.70;;;;;;;26.45;31.27;100112.69;5008358;28;20042;-69
2023/09/14 09:56:02;;;;;;;;;;;;;;;26.92;31.24;100107.81;5004701;28;20040;-69
2023/09/14 09:58:36;;;;;;;0.60;0.60;;;;;;;27.72;29.66;100106.81;5005129;28;19925;-69
2023/09/14 10:01:02;;;;;;;0.35;0.35;;;;;;;27.64;29.79;100104.31;4996943;28;20819;-69
2023/09/14 10:03:29;;;;;;;0.30;0.30;;;;;;;26.07;31.67;100095.66;5005169;28;20100;-67
2023/09/14 10:05:56;;;;;;;0.30;0.30;;;;;;;24.98;33.50;100087.94;5008298;28;20050;-69
2023/09/14 10:08:22;;;;;;;0.60;0.60;;;;;;;24.55;34.36;100098.13;5008256;28;20066;-67
2023/09/14 10:10:53;;;;;;;0.60;0.60;;;;;;;25.76;32.69;100103.13;5007758;28;20341;-69
2023/09/14 10:13:21;;;;;;;0.65;0.65;;;;;;;27.82;29.17;100113.72;5004550;28;20062;-69
2023/09/14 10:15:51;;;;;;;0.60;0.60;;;;;;;28.10;28.65;100091.91;5001574;28;20050;-68
2023/09/14 10:18:19;;;;;;;0.40;0.40;;;;;;;26.52;29.97;100081.97;5004457;28;20100;-68
2023/09/14 10:20:47;;;;;;;0.50;0.50;;;;;;;26.31;31.39;100096.47;5008678;28;20050;-69
2023/09/14 10:23:16;;;;;;;0.50;0.50;;;;;;;27.09;30.45;100097.22;5008147;28;20045;-69
2023/09/14 10:25:45;;;;;;;0.60;0.60;;;;;;;27.31;28.97;100087.88;5007915;28;20053;-69
2023/09/14 10:28:14;;;;;;;0.60;0.60;;;;;;;28.20;27.64;100096.03;5023687;28;20520;-69
2023/09/14 10:30:43;;;;;;;0.60;0.60;;;;;;;28.29;27.19;100094.50;4982961;28;20053;-68
2023/09/14 10:33:11;;;;;;;0.60;0.60;;;;;;;28.71;27.04;100083.13;5008142;28;20069;-69
2023/09/14 10:35:39;;;;;;;0.60;0.60;;;;;;;29.70;25.99;100079.56;5002324;28;20793;-69
2023/09/14 10:38:07;;;;;;;0.60;0.60;;;;;;;29.87;25.80;100077.97;5004145;28;20122;-69
2023/09/14 10:40:34;;;;;;;;;;;;;;;30.14;25.57;100072.78;4991134;28;20398;-68
2023/09/14 10:43:00;;;;;;;0.80;0.80;;;;;;;30.34;25.34;100075.19;5000352;28;19925;-69
2023/09/14 10:45:33;;;;;;;0.73;0.73;;;;;;;30.40;25.04;100072.75;5004122;28;20124;-68
2023/09/14 10:48:03;;;;;;;0.80;0.80;;;;;;;30.23;24.99;100080.00;4997024;28;20054;-69
2023/09/14 10:50:31;;;;;;;0.80;0.80;;;;;;;30.70;24.87;100077.16;5009197;28;20101;-69
2023/09/14 10:52:57;;;;;;;0.90;0.90;;;;;;;31.23;24.55;100072.56;5003174;28;20558;-69
2023/09/14 10:55:25;;;;;;;0.90;0.90;;;;;;;31.49;23.64;100078.88;5006197;28;20049;-68
2023/09/14 10:57:52;;;;;;;0.90;0.90;;;;;;;31.54;23.58;100063.50;4996818;28;20049;-69
2023/09/14 11:00:32;;;;;;;0.90;0.90;;;;;;;31.04;24.09;100050.44;4994479;28;20056;-69
2023/09/14 11:02:59;;;;;;;0.40;0.40;;;;;;;29.64;26.15;100075.50;5001150;28;20057;-71
2023/09/14 11:05:36;;;;;;;0.40;0.40;;;;;;;28.02;27.67;100077.00;5007221;28;20042;-72
2023/09/14 11:08:04;;;;;;;1.10;1.10;;;;;;;27.13;28.91;100079.25;4998705;28;20107;-68
2023/09/14 11:10:34;;;;;;;1.10;1.10;;;;;;;27.67;28.33;100079.06;5005659;28;20056;-68
2023/09/14 11:13:30;;;;;;;0.40;0.40;;;;;;;26.92;29.49;100076.97;5000696;28;20579;-68
2023/09/14 11:16:05;;;;;;;0.40;0.40;;;;;;;24.95;32.22;100090.66;5003748;28;20045;-68
2023/09/14 11:18:49;;;;;;;1.00;1.00;;;;;;;25.49;31.96;100064.59;4995187;28;20073;-68
2023/09/14 11:21:43;;;;;;;0.73;0.73;;;;;;;26.94;29.67;100071.00;5005453;28;20057;-72
2023/09/14 11:24:12;;;;;;;0.40;0.40;;;;;;;26.12;31.03;100066.50;5002920;28;20034;-72
2023/09/14 11:26:47;;;;;;;1.05;1.05;;;;;;;26.22;30.70;100062.28;5005694;28;20567;-72
2023/09/14 11:29:14;;;;;;;1.00;1.00;;;;;;;26.30;30.45;100067.66;5004429;28;20054;-71
2023/09/14 11:31:40;;;;;;;0.90;0.90;;;;;;;27.85;28.56;100056.78;4989935;28;20050;-72